Time;durP1;ratioP1;P1;durP2;ratioP2;P2;SDS_P1;SDS_P2;PMS_P1;PMS_P2;Temp;Humidity;BMP_temperature;BMP_pressure;BME280_temperature;BME280_humidity;BME280_pressure;Samples;Min_cycle;Max_cycle;Signal;HPM_P1;HPM_P2
2022/09/05 00:00:59;;;;;;;5.35;4.80;;;;;;;15.34;83.33;97115.53;5073525;28;20410;-63
2022/09/05 00:03:36;;;;;;;6.82;5.30;;;;;;;15.41;83.52;97111.66;5073567;28;20071;-64
2022/09/05 00:06:10;;;;;;;12.48;5.53;;;;;;;15.39;83.44;97116.19;5073699;28;20048;-64
2022/09/05 00:08:52;;;;;;;6.45;4.43;;;;;;;15.49;83.35;97109.53;5073646;28;20048;-63
2022/09/05 00:11:26;;;;;;;9.13;4.38;;;;;;;15.53;82.94;97111.09;5073666;28;20079;-65
2022/09/05 00:14:07;;;;;;;6.97;5.13;;;;;;;15.61;82.77;97118.63;5073396;28;20095;-62
2022/09/05 00:16:59;;;;;;;6.32;4.30;;;;;;;15.64;82.44;97113.19;5073088;28;20056;-65
2022/09/05 00:19:37;;;;;;;6.78;4.47;;;;;;;15.67;82.15;97125.38;5073310;28;20418;-64
2022/09/05 00:22:34;;;;;;;6.45;5.07;;;;;;;15.73;81.89;97116.28;5073380;28;20094;-66
2022/09/05 00:25:20;;;;;;;7.75;5.25;;;;;;;15.68;81.55;97110.41;5072784;28;20101;-62
2022/09/05 00:27:55;;;;;;;7.30;4.35;;;;;;;15.60;81.96;97101.09;5073254;28;20040;-63
2022/09/05 00:30:23;;;;;;;7.28;5.10;;;;;;;15.51;81.84;97096.28;5073371;28;20040;-65
2022/09/05 00:33:12;;;;;;;5.85;4.65;;;;;;;15.49;82.48;97092.84;5073202;28;20102;-64
2022/09/05 00:36:08;;;;;;;8.80;5.25;;;;;;;15.49;82.80;97095.50;5073730;28;20151;-64
2022/09/05 00:38:35;;;;;;;5.63;4.85;;;;;;;15.53;82.27;97089.13;5073284;28;20044;-64
2022/09/05 00:41:07;;;;;;;5.55;4.70;;;;;;;15.51;82.13;97089.19;5073230;28;20056;-66
2022/09/05 00:43:37;;;;;;;5.90;4.60;;;;;;;15.58;81.86;97089.75;5073145;28;20098;-64
2022/09/05 00:46:09;;;;;;;7.90;4.90;;;;;;;15.63;81.61;97093.00;5073185;28;20070;-67
2022/09/05 00:48:47;;;;;;;5.68;5.07;;;;;;;15.63;81.14;97089.53;5073177;28;20044;-62
2022/09/05 00:51:23;;;;;;;6.35;5.13;;;;;;;15.60;81.05;97100.25;5073017;28;20635;-65
2022/09/05 00:54:08;;;;;;;8.00;5.13;;;;;;;15.63;80.73;97100.91;5073025;28;20110;-64
2022/09/05 00:56:58;;;;;;;6.78;4.07;;;;;;;15.73;80.37;97105.75;5073027;28;20447;-62
2022/09/05 00:59:55;;;;;;;5.47;3.72;;;;;;;15.72;79.39;97102.28;5070757;28;20398;-65
2022/09/05 01:02:32;;;;;;;4.90;4.20;;;;;;;15.66;79.15;97105.22;5070677;28;20074;-62
2022/09/05 01:05:03;;;;;;;5.75;3.80;;;;;;;15.66;79.20;97106.03;5072879;28;20414;-63
2022/09/05 01:07:45;;;;;;;4.15;3.83;;;;;;;15.66;78.79;97106.03;5072942;28;20526;-67
2022/09/05 01:10:22;;;;;;;7.32;4.13;;;;;;;15.61;78.43;97099.31;5075276;28;20049;-65
2022/09/05 01:13:15;;;;;;;9.30;3.45;;;;;;;15.64;78.34;97104.44;5076944;28;20106;-62
2022/09/05 01:15:49;;;;;;;4.32;3.92;;;;;;;15.60;78.23;97097.59;5076731;28;20138;-63
2022/09/05 01:18:32;;;;;;;5.15;3.75;;;;;;;15.48;78.31;97096.44;5076632;28;20456;-63
2022/09/05 01:21:41;;;;;;;4.03;3.63;;;;;;;15.41;78.74;97091.44;5076794;28;20072;-65
2022/09/05 01:24:33;;;;;;;4.35;3.60;;;;;;;15.36;78.57;97098.75;5076652;28;20045;-66
2022/09/05 01:27:39;;;;;;;4.95;3.67;;;;;;;15.32;78.58;97085.78;5076785;28;20089;-65
2022/09/05 01:30:11;;;;;;;4.72;3.78;;;;;;;15.33;78.44;97088.34;5070043;28;20037;-66
2022/09/05 01:32:47;;;;;;;4.65;3.70;;;;;;;15.37;78.18;97083.75;5076327;28;20045;-66
2022/09/05 01:35:50;;;;;;;5.85;3.85;;;;;;;15.35;78.17;97075.09;5076353;28;20105;-65
2022/09/05 01:38:27;;;;;;;4.38;3.47;;;;;;;15.33;78.10;97077.81;5076347;28;20049;-63
2022/09/05 01:41:06;;;;;;;4.20;3.67;;;;;;;15.29;77.97;97079.72;5076227;28;20076;-65
2022/09/05 01:43:55;;;;;;;3.65;3.35;;;;;;;15.22;77.81;97072.19;5076236;28;20543;-63
2022/09/05 01:46:34;;;;;;;5.45;3.53;;;;;;;15.21;77.57;97070.47;5076313;28;20052;-65
2022/09/05 01:49:09;;;;;;;4.28;3.42;;;;;;;15.15;77.53;97058.47;5076126;28;20467;-66
2022/09/05 01:51:46;;;;;;;4.75;3.33;;;;;;;15.11;77.57;97055.09;5076078;28;20498;-61
2022/09/05 01:54:24;;;;;;;5.50;3.75;;;;;;;15.09;77.55;97061.38;5075788;28;20087;-64
2022/09/05 01:57:03;;;;;;;5.22;3.65;;;;;;;15.07;77.63;97055.31;5076005;28;20490;-63
2022/09/05 01:59:41;;;;;;;4.45;3.45;;;;;;;15.05;77.29;97058.03;5076101;28;20098;-64
2022/09/05 02:02:23;;;;;;;3.70;3.35;;;;;;;15.02;77.09;97068.75;5075971;28;20087;-64
2022/09/05 02:05:11;;;;;;;4.40;3.15;;;;;;;15.00;76.97;97062.69;5075775;28;20546;-66
2022/09/05 02:07:59;;;;;;;8.07;3.38;;;;;;;14.99;77.26;97061.00;5075885;28;20048;-65
2022/09/05 02:10:53;;;;;;;3.50;3.17;;;;;;;14.91;77.22;97064.81;5075788;28;20384;-64
2022/09/05 02:13:30;;;;;;;3.20;2.90;;;;;;;14.86;76.97;97069.47;5075848;28;20452;-61
2022/09/05 02:16:04;;;;;;;5.95;3.55;;;;;;;14.82;76.87;97078.44;5075396;28;20067;-62
2022/09/05 02:18:47;;;;;;;4.15;3.40;;;;;;;14.77;76.85;97078.63;5075662;28;20123;-65
2022/09/05 02:21:23;;;;;;;5.15;2.70;;;;;;;14.70;77.00;97079.84;5074209;28;20132;-62
2022/09/05 02:24:02;;;;;;;9.27;3.28;;;;;;;14.64;76.81;97080.09;5075731;28;20110;-63
2022/09/05 02:26:35;;;;;;;3.67;3.38;;;;;;;14.62;77.38;97088.06;5075522;28;20053;-60
2022/09/05 02:29:11;;;;;;;5.03;3.55;;;;;;;14.56;77.46;97085.72;5075588;28;20102;-63
2022/09/05 02:31:45;;;;;;;6.32;3.17;;;;;;;14.52;77.35;97082.38;5075392;28;20474;-66
2022/09/05 02:34:21;;;;;;;7.15;3.33;;;;;;;14.47;77.41;97078.22;5075502;28;20453;-64
2022/09/05 02:36:54;;;;;;;4.68;3.15;;;;;;;14.47;77.47;97078.22;5075209;28;20047;-66
2022/09/05 02:39:35;;;;;;;4.68;3.05;;;;;;;14.38;77.35;97074.25;5075259;28;20044;-65
2022/09/05 02:42:12;;;;;;;4.57;3.30;;;;;;;14.36;77.34;97084.84;5075329;28;20044;-63
2022/09/05 02:44:47;;;;;;;4.85;3.40;;;;;;;14.26;77.40;97068.63;5075146;28;20079;-64
2022/09/05 02:47:21;;;;;;;4.22;2.90;;;;;;;14.23;77.52;97078.41;5075228;28;20049;-62
2022/09/05 02:50:00;;;;;;;12.75;3.15;;;;;;;14.19;77.87;97075.06;5075056;28;20479;-62
2022/09/05 02:52:32;;;;;;;7.45;3.15;;;;;;;14.12;78.58;97084.16;5074993;28;20084;-66
2022/09/05 02:55:01;;;;;;;4.45;3.28;;;;;;;14.05;78.57;97080.94;5074884;28;20049;-65
2022/09/05 02:57:40;;;;;;;6.18;3.17;;;;;;;14.13;78.54;97097.25;5074957;28;20538;-63
2022/09/05 03:00:12;;;;;;;3.95;3.33;;;;;;;14.07;78.54;97088.75;5074847;28;20098;-63
2022/09/05 03:03:12;;;;;;;3.08;2.83;;;;;;;14.08;77.99;97090.47;5074975;28;20048;-64
2022/09/05 03:05:50;;;;;;;4.55;3.13;;;;;;;14.02;77.93;97091.59;5074764;28;20122;-67
2022/09/05 03:08:39;;;;;;;4.10;3.38;;;;;;;13.97;77.90;97097.03;5074730;28;20451;-61
2022/09/05 03:11:52;;;;;;;5.78;3.50;;;;;;;13.96;78.29;97092.72;5074602;28;20486;-62
2022/09/05 03:15:01;;;;;;;5.55;3.28;;;;;;;13.94;78.24;97097.16;5012909;28;20175;-61
2022/09/05 03:17:55;;;;;;;5.68;3.20;;;;;;;13.88;78.24;97098.28;5032315;28;20046;-66
2022/09/05 03:21:03;;;;;;;5.03;2.90;;;;;;;13.88;78.23;97103.53;5072383;28;20059;-61
2022/09/05 03:24:26;;;;;;;5.95;3.45;;;;;;;13.87;78.61;97099.22;5074298;28;20080;-66
2022/09/05 03:27:35;;;;;;;4.15;3.17;;;;;;;13.87;78.44;97106.25;5074406;28;20049;-62
2022/09/05 03:30:10;;;;;;;3.58;3.28;;;;;;;13.84;78.48;97101.97;5038369;28;20132;-62
2022/09/05 03:33:22;;;;;;;4.78;2.92;;;;;;;13.84;78.71;97107.22;5073976;28;20482;-65
2022/09/05 03:36:27;;;;;;;6.50;3.35;;;;;;;13.69;79.34;97113.16;5072041;28;20119;-62
2022/09/05 03:39:23;;;;;;;4.72;3.20;;;;;;;13.68;79.63;97106.16;5074062;28;20102;-61
2022/09/05 03:42:15;;;;;;;7.22;3.70;;;;;;;13.68;79.75;97119.31;5072313;28;20508;-63
2022/09/05 03:45:07;;;;;;;4.03;3.30;;;;;;;13.67;79.96;97121.09;5074010;28;20127;-63
2022/09/05 03:47:55;;;;;;;6.93;3.40;;;;;;;13.67;79.99;97117.59;5073831;28;20101;-60
2022/09/05 03:50:33;;;;;;;7.60;3.92;;;;;;;13.73;80.12;97125.25;5073763;28;20053;-65
2022/09/05 03:53:15;;;;;;;7.30;3.13;;;;;;;13.73;80.19;97135.75;5073921;28;20044;-66
2022/09/05 03:56:02;;;;;;;4.78;3.40;;;;;;;13.75;80.31;97132.13;5073702;28;20139;-65
2022/09/05 03:58:55;;;;;;;3.80;3.38;;;;;;;13.61;81.18;97131.84;5073648;28;20049;-64
2022/09/05 04:01:26;;;;;;;4.35;3.53;;;;;;;13.55;81.86;97135.59;5073692;28;20052;-62
2022/09/05 04:03:57;;;;;;;5.18;3.85;;;;;;;13.52;81.99;97133.09;5073551;28;20045;-66
2022/09/05 04:06:27;;;;;;;7.10;3.33;;;;;;;13.46;82.57;97126.25;5073635;28;20048;-64
2022/09/05 04:09:04;;;;;;;4.82;4.25;;;;;;;13.53;82.48;97132.16;5073599;28;20048;-62
2022/09/05 04:11:36;;;;;;;4.88;3.28;;;;;;;13.62;82.08;97131.81;5073530;28;20044;-64
2022/09/05 04:14:08;;;;;;;5.97;3.38;;;;;;;13.75;81.70;97133.91;5073297;28;20044;-62
2022/09/05 04:16:48;;;;;;;4.15;3.10;;;;;;;13.87;81.12;97137.78;5073068;28;20048;-63
2022/09/05 04:19:24;;;;;;;3.08;2.78;;;;;;;13.97;80.52;97141.75;5073657;28;20080;-63
2022/09/05 04:22:00;;;;;;;4.55;3.60;;;;;;;14.03;79.97;97140.66;5073646;28;20053;-62
2022/09/05 04:24:34;;;;;;;9.30;3.50;;;;;;;14.02;79.98;97137.16;5073379;28;20087;-65
2022/09/05 04:27:15;;;;;;;6.63;3.53;;;;;;;14.07;80.12;97144.00;5073356;28;20044;-66
2022/09/05 04:29:58;;;;;;;7.53;3.13;;;;;;;14.19;80.11;97154.00;5073195;28;20052;-63
2022/09/05 04:32:36;;;;;;;7.93;3.10;;;;;;;14.44;79.47;97157.31;5073250;28;20045;-64
2022/09/05 04:35:21;;;;;;;3.92;2.90;;;;;;;14.93;79.29;97154.31;5073191;28;20056;-65
2022/09/05 04:37:57;;;;;;;7.90;3.30;;;;;;;15.66;76.08;97150.88;5073347;28;20049;-65
2022/09/05 04:40:38;;;;;;;3.95;2.53;;;;;;;16.39;71.57;97161.41;5072999;28;20040;-65
2022/09/05 04:43:08;;;;;;;6.47;2.65;;;;;;;17.01;69.19;97159.94;5073089;28;20075;-67
2022/09/05 04:45:41;;;;;;;3.78;2.72;;;;;;;17.75;66.89;97154.13;5072600;28;20055;-67
2022/09/05 04:48:14;;;;;;;3.80;2.20;;;;;;;18.38;63.82;97159.34;5073218;28;20099;-66
2022/09/05 04:51:04;;;;;;;3.80;2.20;;;;;;;19.01;61.19;97169.69;5073120;28;20052;-65
2022/09/05 04:54:04;;;;;;;12.30;2.28;;;;;;;19.65;59.47;97174.53;5073213;28;20070;-64
2022/09/05 04:56:37;;;;;;;3.35;2.20;;;;;;;20.26;57.50;97172.41;5073004;28;20053;-64
2022/09/05 04:59:11;;;;;;;4.07;2.33;;;;;;;20.89;56.40;97169.84;5073030;28;20090;-64
2022/09/05 05:01:46;;;;;;;3.88;1.85;;;;;;;21.55;54.15;97174.09;5073024;28;20056;-64
2022/09/05 05:04:18;;;;;;;5.07;2.28;;;;;;;22.16;53.34;97177.69;5073105;28;20068;-66
2022/09/05 05:06:49;;;;;;;3.45;1.75;;;;;;;22.71;51.08;97193.09;5072988;28;20045;-66
2022/09/05 05:09:23;;;;;;;4.88;1.73;;;;;;;23.32;50.50;97195.53;5072992;28;20490;-64
2022/09/05 05:11:56;;;;;;;5.22;2.28;;;;;;;23.86;49.05;97190.34;5072906;28;20571;-63
2022/09/05 05:14:29;;;;;;;8.10;1.85;;;;;;;24.30;46.84;97185.00;5072699;28;20395;-65
2022/09/05 05:17:06;;;;;;;2.85;2.03;;;;;;;24.81;46.09;97182.50;5072622;28;20091;-65
2022/09/05 05:19:41;;;;;;;4.93;1.90;;;;;;;25.35;45.04;97186.81;5072820;28;20048;-67
2022/09/05 05:22:14;;;;;;;6.18;1.70;;;;;;;25.78;44.71;97181.28;5072707;28;20098;-66
2022/09/05 05:24:45;;;;;;;4.45;2.08;;;;;;;26.32;43.83;97192.47;5072782;28;20041;-64
2022/09/05 05:27:20;;;;;;;3.20;1.70;;;;;;;26.80;41.89;97189.84;5072693;28;20080;-66
2022/09/05 05:29:50;;;;;;;2.83;2.03;;;;;;;27.06;41.32;97193.75;5072694;28;20080;-63
2022/09/05 05:32:24;;;;;;;2.70;1.90;;;;;;;27.45;41.32;97201.63;5072583;28;20482;-63
2022/09/05 05:34:55;;;;;;;2.90;1.85;;;;;;;27.94;40.32;97196.97;5072652;28;20150;-66
2022/09/05 05:37:25;;;;;;;;;;;;;;;28.39;38.95;97192.53;5073145;28;20131;-66
2022/09/05 05:40:04;;;;;;;5.20;1.85;;;;;;;28.76;37.51;97199.53;5072759;28;20336;-68
2022/09/05 05:42:31;;;;;;;3.15;1.80;;;;;;;29.06;37.37;97201.91;5072595;28;20067;-68
2022/09/05 05:44:59;;;;;;;5.63;2.00;;;;;;;29.31;37.48;97202.03;5072566;28;20122;-62
2022/09/05 05:47:33;;;;;;;3.15;2.00;;;;;;;29.20;36.62;97199.63;5072592;28;20053;-63
2022/09/05 05:50:09;;;;;;;4.30;1.67;;;;;;;29.50;37.40;97195.53;5072492;28;20048;-65
2022/09/05 05:53:05;;;;;;;2.80;2.13;;;;;;;29.85;35.68;97189.25;5072397;28;20045;-67
2022/09/05 05:55:57;;;;;;;4.13;2.03;;;;;;;29.94;34.81;97192.78;5073644;28;20053;-68
2022/09/05 05:58:48;;;;;;;1.83;1.73;;;;;;;29.14;34.46;97193.03;5076104;28;20059;-66
2022/09/05 06:02:04;;;;;;;2.45;1.65;;;;;;;28.56;34.47;97184.59;5076043;28;20501;-66
2022/09/05 06:05:06;;;;;;;4.50;1.90;;;;;;;27.66;33.64;97195.16;5069261;28;20049;-66
2022/09/05 06:07:44;;;;;;;2.30;2.10;;;;;;;27.46;36.12;97194.41;5075809;28;20071;-64
2022/09/05 06:10:44;;;;;;;2.25;1.90;;;;;;;27.31;37.32;97202.13;5075864;28;20086;-67
2022/09/05 06:13:42;;;;;;;3.75;2.08;;;;;;;27.07;37.57;97200.81;5075801;28;20069;-65
2022/09/05 06:16:53;;;;;;;2.00;1.65;;;;;;;27.20;35.84;97195.09;5075640;28;20174;-63
2022/09/05 06:20:10;;;;;;;3.00;1.67;;;;;;;26.84;36.43;97198.44;5075684;28;20041;-63
2022/09/05 06:23:12;;;;;;;2.25;2.05;;;;;;;26.92;36.72;97200.41;5075545;28;20088;-66
2022/09/05 06:25:58;;;;;;;2.05;1.60;;;;;;;26.81;36.38;97201.41;5060640;28;20041;-65
2022/09/05 06:28:36;;;;;;;1.90;1.63;;;;;;;26.42;37.41;97197.81;5075518;28;20110;-65
2022/09/05 06:31:24;;;;;;;2.15;1.60;;;;;;;26.43;38.59;97207.56;5075356;28;20053;-64
2022/09/05 06:34:07;;;;;;;2.50;1.60;;;;;;;26.65;37.92;97202.88;5075300;28;20056;-63
2022/09/05 06:36:52;;;;;;;2.70;1.75;;;;;;;26.35;37.06;97204.75;5075307;28;20461;-66
2022/09/05 06:39:33;;;;;;;4.82;1.75;;;;;;;26.02;38.50;97204.16;5075409;28;20062;-63
2022/09/05 06:42:17;;;;;;;1.60;1.50;;;;;;;26.20;37.79;97199.78;5075223;28;20045;-64
2022/09/05 06:45:16;;;;;;;1.88;1.70;;;;;;;25.85;39.65;97207.38;5075195;28;20048;-65
2022/09/05 06:47:46;;;;;;;1.88;1.77;;;;;;;26.24;39.05;97209.25;5075067;28;20080;-65
2022/09/05 06:50:15;;;;;;;;;;;;;;;26.16;36.98;97209.13;5075552;28;20044;-68
2022/09/05 06:53:31;;;;;;;2.03;1.80;;;;;;;25.90;38.03;97215.00;5075030;28;19965;-63
2022/09/05 06:56:28;;;;;;;2.03;1.75;;;;;;;25.96;39.34;97211.78;5074905;28;20052;-63
2022/09/05 06:59:28;;;;;;;4.45;1.77;;;;;;;26.49;41.42;97215.03;5066967;28;20080;-64
2022/09/05 07:02:03;;;;;;;1.73;1.40;;;;;;;26.69;36.65;97224.88;5074736;28;20048;-65
2022/09/05 07:04:35;;;;;;;2.47;2.05;;;;;;;26.66;36.38;97223.34;5074843;28;20048;-64
2022/09/05 07:07:12;;;;;;;2.90;1.70;;;;;;;26.65;37.29;97218.13;5074028;28;20080;-65
2022/09/05 07:09:53;;;;;;;2.10;1.45;;;;;;;26.57;36.33;97226.88;5074794;28;20460;-63
2022/09/05 07:12:26;;;;;;;2.10;1.67;;;;;;;26.77;37.11;97219.66;5074621;28;20054;-62
2022/09/05 07:15:13;;;;;;;2.22;1.77;;;;;;;27.02;36.54;97224.56;5074479;28;20092;-64
2022/09/05 07:17:52;;;;;;;4.30;1.27;;;;;;;26.91;35.73;97222.88;5074279;28;20102;-64
2022/09/05 07:20:23;;;;;;;1.35;1.25;;;;;;;26.69;37.61;97235.59;5074425;28;20083;-67
2022/09/05 07:22:56;;;;;;;3.10;1.48;;;;;;;26.67;37.53;97229.56;5074455;28;20486;-67
2022/09/05 07:25:29;;;;;;;1.90;1.80;;;;;;;26.86;36.42;97226.00;5074477;28;20481;-64
2022/09/05 07:27:59;;;;;;;2.45;1.60;;;;;;;27.28;36.10;97230.13;5074271;28;20593;-64
2022/09/05 07:30:27;;;;;;;1.95;1.70;;;;;;;27.62;35.04;97236.72;5074160;28;20051;-63
2022/09/05 07:32:56;;;;;;;2.60;1.38;;;;;;;27.48;36.39;97232.72;5074181;28;20058;-62
2022/09/05 07:35:29;;;;;;;1.48;1.35;;;;;;;27.49;34.87;97232.56;5074119;28;20513;-64
2022/09/05 07:38:03;;;;;;;2.35;1.20;;;;;;;27.24;35.04;97226.88;5074100;28;20517;-65
2022/09/05 07:40:36;;;;;;;1.90;1.70;;;;;;;27.07;36.01;97225.81;5074118;28;20044;-65
2022/09/05 07:43:07;;;;;;;4.50;1.50;;;;;;;26.56;35.98;97226.06;5074143;28;20055;-62
2022/09/05 07:45:37;;;;;;;1.75;1.63;;;;;;;26.14;37.18;97219.13;5074082;28;20040;-63
2022/09/05 07:48:11;;;;;;;1.60;1.50;;;;;;;25.83;38.52;97216.56;5074082;28;20048;-63
2022/09/05 07:50:50;;;;;;;3.22;1.60;;;;;;;26.06;38.32;97213.59;5073834;28;20540;-63
2022/09/05 07:53:19;;;;;;;2.85;1.50;;;;;;;26.18;37.23;97209.81;5073812;28;20045;-65
2022/09/05 07:55:52;;;;;;;2.25;1.52;;;;;;;25.87;36.99;97209.94;5073766;28;20414;-63
2022/09/05 07:58:22;;;;;;;1.35;1.25;;;;;;;26.01;35.82;97208.69;5073618;28;20065;-62
2022/09/05 08:00:55;;;;;;;1.52;1.30;;;;;;;25.82;38.13;97207.66;5073791;28;20055;-67
2022/09/05 08:03:27;;;;;;;2.03;1.35;;;;;;;25.54;38.34;97209.25;5073747;28;20048;-60
2022/09/05 08:05:59;;;;;;;2.28;1.60;;;;;;;25.78;38.82;97202.72;5073606;28;20131;-65
2022/09/05 08:08:30;;;;;;;1.48;1.35;;;;;;;25.68;36.38;97206.25;5073469;28;20076;-65
2022/09/05 08:11:05;;;;;;;1.67;1.50;;;;;;;25.49;38.48;97204.31;5073422;28;20040;-62
2022/09/05 08:13:53;;;;;;;1.70;1.60;;;;;;;25.89;38.63;97199.94;5073548;28;20051;-65
2022/09/05 08:16:23;;;;;;;2.05;1.23;;;;;;;26.12;37.35;97192.44;5073081;28;20088;-63
2022/09/05 08:18:56;;;;;;;2.08;1.30;;;;;;;26.01;35.48;97202.47;5073495;28;20501;-65
2022/09/05 08:21:30;;;;;;;1.30;1.20;;;;;;;26.08;36.07;97206.28;5073354;28;20059;-60
2022/09/05 08:24:03;;;;;;;2.35;1.10;;;;;;;26.18;36.51;97185.69;5073304;28;20059;-65
2022/09/05 08:26:39;;;;;;;4.60;1.30;;;;;;;26.31;37.37;97192.63;5073429;28;20060;-65
2022/09/05 08:29:13;;;;;;;1.30;1.20;;;;;;;26.35;35.95;97196.72;5073250;28;20059;-64
2022/09/05 08:31:45;;;;;;;1.10;1.00;;;;;;;25.88;36.92;97190.19;5073406;28;20080;-63
2022/09/05 08:34:17;;;;;;;1.58;1.20;;;;;;;25.68;36.41;97192.84;5073269;28;20083;-64
2022/09/05 08:36:48;;;;;;;4.57;1.25;;;;;;;25.57;41.24;97195.59;5073115;28;20044;-64
2022/09/05 08:39:20;;;;;;;1.85;1.50;;;;;;;25.28;38.32;97193.69;5073162;28;20048;-63
2022/09/05 08:42:05;;;;;;;2.00;1.30;;;;;;;25.46;39.22;97194.72;5073086;28;20544;-64
2022/09/05 08:44:41;;;;;;;1.20;1.10;;;;;;;25.81;35.44;97186.38;5073128;28;20064;-62
2022/09/05 08:47:19;;;;;;;2.35;1.00;;;;;;;25.30;34.70;97195.25;5073240;28;20596;-65
2022/09/05 08:50:04;;;;;;;1.27;1.00;;;;;;;25.24;35.15;97193.09;5073097;28;20095;-64
2022/09/05 08:52:45;;;;;;;1.08;0.98;;;;;;;25.26;37.08;97192.97;5072970;28;20051;-66
2022/09/05 08:55:21;;;;;;;1.05;0.95;;;;;;;25.66;35.44;97185.91;5073184;28;20044;-62
2022/09/05 08:58:02;;;;;;;1.48;1.05;;;;;;;25.99;36.93;97186.53;5073060;28;20482;-65
2022/09/05 09:00:37;;;;;;;2.53;1.23;;;;;;;25.63;35.98;97187.06;5073029;28;20052;-60
2022/09/05 09:03:12;;;;;;;9.02;1.42;;;;;;;25.16;36.72;97209.00;5072937;28;20101;-64
2022/09/05 09:06:14;;;;;;;1.85;1.30;;;;;;;24.90;37.63;97193.41;5072826;28;20048;-62
2022/09/05 09:09:03;;;;;;;1.42;1.10;;;;;;;25.16;37.29;97192.94;5073007;28;20562;-61
2022/09/05 09:11:35;;;;;;;1.37;1.17;;;;;;;25.35;39.45;97195.69;5060329;28;20075;-60
2022/09/05 09:14:37;;;;;;;0.90;0.90;;;;;;;25.23;36.18;97196.78;5072850;28;20368;-62
2022/09/05 09:17:27;;;;;;;1.30;1.02;;;;;;;25.12;37.87;97197.72;5072461;28;20088;-62
2022/09/05 09:20:22;;;;;;;3.15;1.00;;;;;;;25.33;36.68;97192.31;5068107;28;20106;-64
2022/09/05 09:22:58;;;;;;;4.35;0.95;;;;;;;25.18;36.60;97190.97;5072712;28;20127;-64
2022/09/05 09:25:29;;;;;;;4.55;1.08;;;;;;;24.86;37.96;97182.06;5072790;28;20084;-62
2022/09/05 09:28:18;;;;;;;1.50;1.00;;;;;;;25.02;35.29;97186.97;5072836;28;20094;-62
2022/09/05 09:30:56;;;;;;;3.78;1.23;;;;;;;25.53;37.37;97186.16;5074286;28;20044;-63
2022/09/05 09:33:35;;;;;;;1.08;0.90;;;;;;;25.79;36.52;97191.84;5076623;28;20048;-62
2022/09/05 09:36:10;;;;;;;1.55;1.40;;;;;;;25.88;34.65;97192.03;5076402;28;20502;-65
2022/09/05 09:38:53;;;;;;;1.85;1.08;;;;;;;26.03;35.84;97189.78;5076469;28;20082;-63
2022/09/05 09:41:51;;;;;;;0.90;0.90;;;;;;;25.47;35.64;97185.69;5076227;28;20052;-62
2022/09/05 09:44:51;;;;;;;1.38;0.95;;;;;;;24.68;37.95;97198.72;5076188;28;20554;-64
2022/09/05 09:47:39;;;;;;;3.00;1.00;;;;;;;24.52;38.41;97190.31;5076162;28;20501;-65
2022/09/05 09:50:22;;;;;;;3.33;1.30;;;;;;;24.70;37.80;97179.88;5076257;28;20540;-63
2022/09/05 09:53:02;;;;;;;1.50;1.00;;;;;;;24.72;37.83;97181.44;5076269;28;20099;-65
2022/09/05 09:56:04;;;;;;;1.10;1.00;;;;;;;24.38;38.39;97186.16;5076005;28;20128;-63
2022/09/05 09:59:02;;;;;;;1.25;0.98;;;;;;;24.60;38.41;97182.50;5076058;28;20087;-62
2022/09/05 10:01:42;;;;;;;1.30;1.10;;;;;;;24.94;39.13;97184.97;5075995;28;20041;-63
2022/09/05 10:04:43;;;;;;;3.45;1.17;;;;;;;24.92;36.83;97178.06;5075984;28;20414;-65
2022/09/05 10:07:48;;;;;;;1.20;0.80;;;;;;;24.89;37.76;97175.66;5075983;28;20048;-62
2022/09/05 10:10:44;;;;;;;1.40;1.08;;;;;;;24.98;36.63;97172.16;5058945;28;20046;-65
2022/09/05 10:13:27;;;;;;;0.90;0.88;;;;;;;24.97;35.69;97174.00;5075844;28;20092;-63
2022/09/05 10:16:34;;;;;;;0.93;0.80;;;;;;;24.93;37.07;97177.06;5075595;28;20128;-62
2022/09/05 10:19:37;;;;;;;1.20;1.05;;;;;;;24.97;36.78;97170.47;5069310;28;20087;-65
2022/09/05 10:22:21;;;;;;;1.00;0.80;;;;;;;24.88;37.08;97172.13;5075614;28;20437;-62
2022/09/05 10:25:11;;;;;;;2.97;0.82;;;;;;;24.69;39.13;97180.88;5075725;28;20055;-60
2022/09/05 10:27:54;;;;;;;3.85;1.30;;;;;;;24.88;36.70;97173.94;5075429;28;20045;-62
2022/09/05 10:30:25;;;;;;;1.00;0.80;;;;;;;24.77;37.34;97170.34;5075534;28;20047;-65
2022/09/05 10:33:28;;;;;;;0.82;0.82;;;;;;;24.32;38.09;97179.50;5075341;28;20106;-62
2022/09/05 10:36:02;;;;;;;2.47;1.00;;;;;;;24.47;36.93;97170.19;5075239;28;20089;-65
2022/09/05 10:38:39;;;;;;;4.50;1.00;;;;;;;24.59;38.28;97164.78;5075298;28;20161;-64
2022/09/05 10:41:10;;;;;;;0.73;0.73;;;;;;;24.61;37.77;97171.69;5075002;28;20098;-64
2022/09/05 10:43:48;;;;;;;1.30;1.00;;;;;;;24.54;37.21;97169.66;5074724;28;20052;-64
2022/09/05 10:46:29;;;;;;;2.63;0.90;;;;;;;24.57;38.88;97167.59;5075175;28;20045;-63
2022/09/05 10:49:04;;;;;;;1.83;1.10;;;;;;;24.67;37.82;97169.44;5075120;28;20053;-63
2022/09/05 10:51:38;;;;;;;1.15;0.80;;;;;;;24.68;35.95;97163.13;5074951;28;20095;-62
2022/09/05 10:54:26;;;;;;;2.83;0.90;;;;;;;24.71;37.88;97163.69;5075074;28;20048;-61
2022/09/05 10:57:05;;;;;;;1.42;1.00;;;;;;;24.83;35.54;97153.75;5074900;28;20048;-64
2022/09/05 10:59:55;;;;;;;1.00;1.00;;;;;;;25.21;37.03;97159.44;5074853;28;20048;-64
2022/09/05 11:02:26;;;;;;;1.63;1.00;;;;;;;25.51;35.03;97156.84;5074966;28;20410;-63
2022/09/05 11:05:04;;;;;;;0.65;0.65;;;;;;;25.19;35.23;97163.25;5074860;28;20048;-62
2022/09/05 11:07:40;;;;;;;0.80;0.80;;;;;;;24.97;35.25;97157.09;5074710;28;20084;-62
2022/09/05 11:10:16;;;;;;;0.65;0.65;;;;;;;24.84;34.97;97158.13;5074725;28;20106;-63
2022/09/05 11:13:03;;;;;;;2.58;0.60;;;;;;;24.72;36.67;97157.34;5074700;28;20055;-64
2022/09/05 11:15:41;;;;;;;1.17;0.80;;;;;;;24.61;35.94;97144.09;5074591;28;20041;-62
2022/09/05 11:18:15;;;;;;;1.13;0.68;;;;;;;24.57;32.93;97148.00;5074294;28;20489;-61
2022/09/05 11:20:55;;;;;;;2.25;0.70;;;;;;;24.46;35.67;97151.59;5074498;28;20080;-60
2022/09/05 11:23:30;;;;;;;2.05;0.85;;;;;;;24.50;37.60;97146.84;5074483;28;20181;-64
2022/09/05 11:26:04;;;;;;;0.93;0.68;;;;;;;24.59;34.17;97152.22;5074395;28;20048;-64
2022/09/05 11:28:40;;;;;;;0.88;0.65;;;;;;;24.65;35.00;97147.34;5074275;28;20048;-63
2022/09/05 11:31:14;;;;;;;1.80;0.70;;;;;;;24.79;33.82;97148.81;5074164;28;20058;-64
2022/09/05 11:34:25;;;;;;;0.80;0.70;;;;;;;24.68;34.55;97137.22;5074171;28;20041;-64
2022/09/05 11:36:57;;;;;;;0.70;0.50;;;;;;;24.77;36.68;97130.22;5074094;28;20556;-61
2022/09/05 11:40:03;;;;;;;0.70;0.70;;;;;;;24.67;35.88;97142.69;5074237;28;20512;-62
2022/09/05 11:42:45;;;;;;;0.80;0.80;;;;;;;24.62;34.28;97135.06;5074144;28;20078;-64
2022/09/05 11:45:31;;;;;;;0.80;0.80;;;;;;;24.60;33.52;97134.38;5074019;28;20060;-64
2022/09/05 11:48:19;;;;;;;1.00;0.90;;;;;;;24.60;33.96;97129.03;5074002;28;20056;-61
2022/09/05 11:51:24;;;;;;;1.15;0.70;;;;;;;24.76;34.59;97125.00;5073769;28;20486;-62
2022/09/05 11:54:30;;;;;;;2.33;0.70;;;;;;;24.66;34.14;97127.66;5073462;28;20052;-65
2022/09/05 11:57:13;;;;;;;1.25;1.13;;;;;;;24.78;34.79;97123.06;5065602;28;20074;-63
2022/09/05 12:00:08;;;;;;;3.85;1.02;;;;;;;24.69;35.12;97125.56;5073687;28;20090;-62
2022/09/05 12:02:56;;;;;;;0.80;0.80;;;;;;;24.72;35.40;97127.13;5073677;28;20083;-63
2022/09/05 12:05:54;;;;;;;1.08;0.70;;;;;;;24.82;35.33;97113.78;5073643;28;20048;-62
2022/09/05 12:08:34;;;;;;;1.30;0.90;;;;;;;24.90;35.87;97116.66;5073715;28;20048;-62
2022/09/05 12:11:17;;;;;;;2.75;1.13;;;;;;;24.66;36.28;97112.47;5073588;28;20076;-65
2022/09/05 12:13:47;;;;;;;0.90;0.90;;;;;;;24.67;36.39;97107.94;5073415;28;20520;-64
2022/09/05 12:16:35;;;;;;;1.58;0.90;;;;;;;24.59;36.41;97103.28;5073228;28;20486;-61
2022/09/05 12:19:18;;;;;;;1.45;1.00;;;;;;;24.54;36.83;97114.38;5073480;28;20123;-61
2022/09/05 12:22:07;;;;;;;1.13;1.00;;;;;;;24.48;37.41;97110.38;5073381;28;20135;-60
2022/09/05 12:24:43;;;;;;;2.25;0.95;;;;;;;24.51;37.09;97114.63;5060569;28;20060;-62
2022/09/05 12:27:15;;;;;;;1.35;1.00;;;;;;;24.42;36.82;97108.25;5073433;28;20514;-63
2022/09/05 12:29:45;;;;;;;1.52;1.15;;;;;;;24.52;37.34;97096.75;5073346;28;20044;-62
2022/09/05 12:32:19;;;;;;;0.80;0.80;;;;;;;24.52;37.31;97099.41;5073299;28;20049;-63
2022/09/05 12:34:51;;;;;;;1.40;0.90;;;;;;;24.64;37.04;97098.38;5073431;28;20044;-64
2022/09/05 12:37:28;;;;;;;0.98;0.90;;;;;;;24.58;36.76;97097.06;5073213;28;20061;-64
2022/09/05 12:40:05;;;;;;;1.33;1.10;;;;;;;24.58;36.05;97098.88;5073211;28;20106;-64
2022/09/05 12:42:41;;;;;;;1.67;0.95;;;;;;;24.38;37.39;97103.31;5073350;28;20094;-62